Time;durP1;ratioP1;P1;durP2;ratioP2;P2;SDS_P1;SDS_P2;PMS_P1;PMS_P2;Temp;Humidity;BMP_temperature;BMP_pressure;BME280_temperature;BME280_humidity;BME280_pressure;Samples;Min_cycle;Max_cycle;Signal;HPM_P1;HPM_P2
2021/12/15 00:02:19;;;;;;;75.15;35.78;;;;;;;7.85;100.00;102764.75;5262566;28;20057;-65
2021/12/15 00:04:52;;;;;;;79.53;37.28;;;;;;;7.84;100.00;102763.03;5264747;28;20036;-66
2021/12/15 00:07:25;;;;;;;69.93;34.65;;;;;;;7.89;100.00;102760.22;5259118;28;20490;-66
2021/12/15 00:09:57;;;;;;;75.30;35.22;;;;;;;7.87;100.00;102761.19;5260758;28;20025;-65
2021/12/15 00:12:28;;;;;;;78.88;36.40;;;;;;;7.87;100.00;102754.09;5256384;28;20359;-65
2021/12/15 00:14:59;;;;;;;74.22;34.72;;;;;;;7.91;100.00;102746.88;5266058;28;20470;-65
2021/12/15 00:17:30;;;;;;;78.13;37.85;;;;;;;7.83;100.00;102749.78;5262852;28;20036;-65
2021/12/15 00:20:10;;;;;;;79.50;36.35;;;;;;;7.81;100.00;102739.22;5258050;28;20064;-65
2021/12/15 00:22:43;;;;;;;79.05;35.47;;;;;;;7.81;100.00;102741.00;5267111;28;20032;-65
2021/12/15 00:25:14;;;;;;;73.60;36.60;;;;;;;7.81;100.00;102741.88;5245191;28;20086;-65
2021/12/15 00:27:45;;;;;;;85.13;38.03;;;;;;;7.82;100.00;102748.03;5266152;28;20028;-65
2021/12/15 00:30:18;;;;;;;86.22;38.85;;;;;;;7.80;100.00;102741.91;5267982;28;20032;-65
2021/12/15 00:32:50;;;;;;;88.20;38.50;;;;;;;7.83;100.00;102745.34;5271310;28;20478;-65
2021/12/15 00:35:24;;;;;;;81.60;37.35;;;;;;;7.78;100.00;102735.78;5268404;28;20033;-65
2021/12/15 00:37:55;;;;;;;81.85;36.80;;;;;;;7.80;100.00;102739.25;5270808;28;20455;-65
2021/12/15 00:40:26;;;;;;;85.60;37.50;;;;;;;7.80;100.00;102744.56;5273594;28;20059;-66
2021/12/15 00:42:58;;;;;;;88.90;38.22;;;;;;;7.77;100.00;102734.06;5267763;28;20091;-66
2021/12/15 00:45:30;;;;;;;78.78;35.08;;;;;;;7.77;100.00;102736.72;5268246;28;20439;-66
2021/12/15 00:48:02;;;;;;;74.45;35.35;;;;;;;7.86;100.00;102739.03;5264881;28;20028;-66
2021/12/15 00:50:35;;;;;;;83.85;37.28;;;;;;;7.80;100.00;102742.78;5261905;28;20043;-66
2021/12/15 00:53:07;;;;;;;92.60;39.28;;;;;;;7.79;100.00;102746.38;5270517;28;20043;-66
2021/12/15 00:55:39;;;;;;;76.57;35.20;;;;;;;7.84;100.00;102732.91;5270889;28;20028;-66
2021/12/15 00:58:12;;;;;;;75.50;34.80;;;;;;;7.84;100.00;102738.22;5272101;28;20102;-66
2021/12/15 01:00:55;;;;;;;78.90;34.78;;;;;;;7.84;100.00;102740.88;5269602;28;20040;-66
2021/12/15 01:03:26;;;;;;;73.88;33.30;;;;;;;7.82;100.00;102733.00;5270206;28;20021;-66
2021/12/15 01:06:05;;;;;;;80.25;35.47;;;;;;;7.85;100.00;102727.56;5272704;28;20603;-66
2021/12/15 01:08:42;;;;;;;77.45;34.20;;;;;;;7.83;100.00;102745.34;5262786;28;20060;-66
2021/12/15 01:11:30;;;;;;;73.90;34.30;;;;;;;7.85;100.00;102754.13;5271333;28;20016;-66
2021/12/15 01:22:32;;;;;;;76.95;35.03;;;;;;;7.87;100.00;102748.75;5267779;28;20075;-66
2021/12/15 01:25:12;;;;;;;71.63;32.00;;;;;;;7.88;100.00;102747.84;5271629;28;20482;-66
2021/12/15 01:27:44;;;;;;;76.80;34.33;;;;;;;7.81;100.00;102751.63;5268058;28;20029;-66
2021/12/15 01:30:19;;;;;;;77.30;35.63;;;;;;;7.87;100.00;102747.91;5270051;28;20386;-66
2021/12/15 01:32:51;;;;;;;79.60;35.92;;;;;;;7.87;100.00;102750.56;5270013;28;20779;-66
2021/12/15 01:35:23;;;;;;;74.10;34.47;;;;;;;7.88;100.00;102747.84;5268670;28;20067;-66
2021/12/15 01:37:56;;;;;;;76.25;35.63;;;;;;;7.84;100.00;102746.19;5269824;28;20310;-66
2021/12/15 01:40:35;;;;;;;68.25;32.42;;;;;;;7.88;100.00;102739.88;5259632;28;20020;-66
2021/12/15 01:43:23;;;;;;;72.65;33.92;;;;;;;7.87;100.00;102743.44;5268726;28;20024;-66
2021/12/15 01:49:01;;;;;;;74.20;34.08;;;;;;;7.88;100.00;102749.63;5271775;28;20386;-65
2021/12/15 01:51:33;;;;;;;74.18;33.47;;;;;;;7.89;100.00;102754.91;5268104;28;20417;-66
2021/12/15 01:54:04;;;;;;;73.80;35.65;;;;;;;7.86;100.00;102752.34;5268982;28;20031;-66
2021/12/15 01:56:36;;;;;;;78.35;35.80;;;;;;;7.84;100.00;102755.06;5269800;28;20028;-66
2021/12/15 01:59:09;;;;;;;78.75;35.03;;;;;;;7.83;100.00;102761.28;5270931;28;20020;-66
2021/12/15 02:01:41;;;;;;;77.50;34.22;;;;;;;7.89;100.00;102765.53;5272370;28;20029;-66
2021/12/15 02:04:16;;;;;;;76.13;34.97;;;;;;;7.85;100.00;102766.56;5267177;28;20472;-66
2021/12/15 02:06:48;;;;;;;80.47;35.42;;;;;;;7.82;100.00;102764.88;5266033;28;20411;-66
2021/12/15 02:12:15;;;;;;;81.25;34.88;;;;;;;7.90;100.00;102775.25;5266402;28;20024;-66
2021/12/15 02:14:46;;;;;;;80.30;34.80;;;;;;;7.93;100.00;102772.47;5268660;28;20021;-66
2021/12/15 02:17:19;;;;;;;79.13;35.92;;;;;;;7.90;100.00;102777.91;5260345;28;20086;-66
2021/12/15 02:19:51;;;;;;;77.70;35.45;;;;;;;7.90;100.00;102777.91;5263226;28;20066;-65
2021/12/15 02:22:22;;;;;;;84.78;36.05;;;;;;;7.90;100.00;102763.72;5259948;28;20111;-65
2021/12/15 02:24:54;;;;;;;75.85;34.35;;;;;;;7.96;100.00;102777.69;5265856;28;20060;-65
2021/12/15 02:27:31;;;;;;;74.60;33.85;;;;;;;7.92;100.00;102775.16;5266345;28;20036;-66
2021/12/15 02:30:19;;;;;;;77.95;34.45;;;;;;;7.87;100.00;102778.00;5271684;28;20035;-66
2021/12/15 02:38:32;;;;;;;74.38;33.30;;;;;;;7.92;100.00;102775.16;5268738;28;20028;-66
2021/12/15 02:41:09;;;;;;;77.15;34.03;;;;;;;7.89;100.00;102777.94;5269621;28;20107;-66
2021/12/15 02:43:40;;;;;;;76.00;34.85;;;;;;;7.93;100.00;102766.28;5258010;28;20503;-66
2021/12/15 02:46:11;;;;;;;75.68;34.10;;;;;;;7.91;100.00;102774.31;5258342;28;20075;-66
2021/12/15 02:48:44;;;;;;;82.82;35.88;;;;;;;7.91;100.00;102768.13;5260517;28;20058;-66
2021/12/15 02:51:16;;;;;;;69.93;32.95;;;;;;;7.99;100.00;102774.91;5263154;28;20328;-66
2021/12/15 02:53:49;;;;;;;74.30;32.70;;;;;;;7.92;100.00;102767.19;5257959;28;20087;-66
2021/12/15 02:56:20;;;;;;;77.68;33.50;;;;;;;8.02;100.00;102769.50;5260888;28;20395;-66
2021/12/15 02:58:58;;;;;;;71.32;31.25;;;;;;;7.95;100.00;102767.09;5257890;28;20142;-66
2021/12/15 03:01:41;;;;;;;73.28;33.60;;;;;;;7.92;100.00;102767.19;5261082;28;20037;-66
2021/12/15 03:07:40;;;;;;;68.90;31.00;;;;;;;7.95;100.00;102773.28;5260597;28;20041;-66
2021/12/15 03:15:38;;;;;;;72.32;32.83;;;;;;;7.98;100.00;102770.53;5256119;28;20041;-66
2021/12/15 03:18:19;;;;;;;77.05;34.13;;;;;;;7.97;100.00;102770.56;5260295;28;20024;-66
2021/12/15 03:21:12;;;;;;;75.13;33.83;;;;;;;7.93;100.00;102764.50;5251458;28;20044;-66
2021/12/15 03:23:54;;;;;;;75.35;32.63;;;;;;;7.97;100.00;102747.50;5251677;28;20032;-66
2021/12/15 03:26:32;;;;;;;74.25;32.10;;;;;;;7.94;100.00;102752.06;5252477;28;20040;-66
2021/12/15 03:35:05;;;;;;;69.35;32.35;;;;;;;7.94;100.00;102766.25;5259819;28;20033;-66
2021/12/15 03:37:39;;;;;;;75.68;32.90;;;;;;;7.95;100.00;102775.94;5257998;28;20021;-66
2021/12/15 03:40:22;;;;;;;71.05;31.88;;;;;;;8.01;100.00;102764.22;5255521;28;20756;-66
2021/12/15 03:43:03;;;;;;;69.07;31.90;;;;;;;7.99;100.00;102761.63;5257338;28;20474;-66
2021/12/15 03:45:50;;;;;;;75.43;32.45;;;;;;;7.98;100.00;102767.00;5260188;28;20033;-66
2021/12/15 03:48:27;;;;;;;70.40;31.58;;;;;;;7.94;100.00;102773.31;5262316;28;20063;-66
2021/12/15 03:50:59;;;;;;;73.95;32.25;;;;;;;7.94;100.00;102774.22;5256687;28;20035;-66
2021/12/15 03:53:30;;;;;;;70.70;31.83;;;;;;;7.92;100.00;102769.84;5258522;28;20033;-66
2021/12/15 03:56:03;;;;;;;68.38;31.02;;;;;;;7.97;100.00;102774.09;5262079;28;22038;-66
2021/12/15 03:58:34;;;;;;;69.32;31.05;;;;;;;7.96;100.00;102775.03;5248600;28;20155;-66
2021/12/15 04:01:11;;;;;;;71.10;31.08;;;;;;;7.96;100.00;102775.03;5261574;28;20082;-66
2021/12/15 04:03:46;;;;;;;72.82;30.60;;;;;;;8.00;100.00;102778.47;5267143;28;20390;-66
2021/12/15 04:06:24;;;;;;;65.70;29.85;;;;;;;8.02;100.00;102777.47;5272926;28;20039;-66
2021/12/15 04:08:56;;;;;;;67.78;29.80;;;;;;;8.01;100.00;102788.16;5262740;28;20021;-66
2021/12/15 04:11:33;;;;;;;67.80;30.35;;;;;;;7.98;100.00;102781.16;5264323;28;20102;-66
2021/12/15 04:14:10;;;;;;;66.07;30.45;;;;;;;7.98;100.00;102786.47;5262574;28;20112;-66
2021/12/15 04:16:45;;;;;;;64.93;30.02;;;;;;;7.98;100.00;102778.50;5262698;28;20478;-66
2021/12/15 04:19:20;;;;;;;62.08;27.98;;;;;;;8.05;100.00;102784.47;5268371;28;20488;-66
2021/12/15 04:21:51;;;;;;;66.82;29.33;;;;;;;8.01;100.00;102786.34;5259788;28;20033;-66
2021/12/15 04:24:26;;;;;;;61.92;28.42;;;;;;;8.00;100.00;102784.63;5265534;28;20030;-66
2021/12/15 04:26:59;;;;;;;63.00;28.42;;;;;;;7.98;100.00;102780.31;5264939;28;20033;-66
2021/12/15 04:29:30;;;;;;;62.70;28.05;;;;;;;7.96;100.00;102796.28;5261679;28;20032;-66
2021/12/15 04:32:12;;;;;;;63.67;29.13;;;;;;;8.02;100.00;102792.56;5262990;28;20359;-66
2021/12/15 04:34:43;;;;;;;62.65;29.75;;;;;;;8.05;100.00;102795.09;5269882;28;20115;-66
2021/12/15 04:37:15;;;;;;;61.42;28.50;;;;;;;7.98;100.00;102799.78;5264878;28;21188;-66
2021/12/15 04:39:46;;;;;;;60.80;27.80;;;;;;;7.98;100.00;102801.56;5264112;28;20560;-65
2021/12/15 04:42:19;;;;;;;64.85;29.63;;;;;;;7.97;100.00;102791.84;5262426;28;20021;-66
2021/12/15 04:44:54;;;;;;;62.88;27.92;;;;;;;8.02;100.00;102798.75;5265250;28;20032;-66
2021/12/15 04:47:26;;;;;;;58.17;27.67;;;;;;;8.00;100.00;102805.03;5268341;28;20060;-66
2021/12/15 04:49:58;;;;;;;66.18;29.00;;;;;;;8.00;100.00;102802.38;5262221;28;20553;-66
2021/12/15 04:52:29;;;;;;;62.83;28.67;;;;;;;7.97;100.00;102810.44;5264320;28;20032;-66
2021/12/15 04:55:03;;;;;;;59.28;27.60;;;;;;;7.97;100.00;102811.31;5261469;28;20063;-66
2021/12/15 04:57:35;;;;;;;57.63;27.27;;;;;;;8.02;100.00;102808.50;5256526;28;20071;-66
2021/12/15 05:00:11;;;;;;;58.05;27.77;;;;;;;8.03;100.00;102807.56;5254802;28;20033;-66
2021/12/15 05:02:42;;;;;;;61.08;27.70;;;;;;;8.05;100.00;102805.72;5256620;28;20094;-66
2021/12/15 05:05:14;;;;;;;58.47;26.35;;;;;;;8.03;100.00;102810.22;5258196;28;20021;-66
2021/12/15 05:07:45;;;;;;;60.03;27.77;;;;;;;8.01;100.00;102823.56;5265418;28;20040;-66
2021/12/15 05:10:19;;;;;;;60.75;27.48;;;;;;;8.01;100.00;102812.94;5264488;28;20037;-66
2021/12/15 05:12:50;;;;;;;54.67;27.17;;;;;;;7.99;100.00;102814.78;5266729;28;20033;-66
2021/12/15 05:15:22;;;;;;;61.80;28.20;;;;;;;7.98;100.00;102812.19;5265101;28;20488;-65
2021/12/15 05:17:53;;;;;;;57.65;27.33;;;;;;;7.98;100.00;102812.19;5263524;28;21448;-65
2021/12/15 05:20:25;;;;;;;56.63;26.08;;;;;;;8.02;100.00;102820.00;5252353;28;20047;-65
2021/12/15 05:22:57;;;;;;;57.33;25.52;;;;;;;8.02;100.00;102821.81;5250002;28;20028;-65
2021/12/15 05:25:28;;;;;;;58.78;27.20;;;;;;;8.04;100.00;102828.78;5258983;28;20025;-65
2021/12/15 05:28:00;;;;;;;61.55;27.75;;;;;;;7.99;100.00;102824.56;5264102;28;20528;-66
2021/12/15 05:30:32;;;;;;;60.80;26.52;;;;;;;7.96;100.00;102825.53;5255472;28;20491;-66
2021/12/15 05:33:03;;;;;;;59.22;25.67;;;;;;;7.96;100.00;102824.69;5253458;28;20081;-66
2021/12/15 05:35:36;;;;;;;58.88;26.65;;;;;;;7.98;100.00;102829.00;5254275;28;20021;-66
2021/12/15 05:38:08;;;;;;;56.53;25.83;;;;;;;7.99;100.00;102825.41;5255008;28;20020;-66
2021/12/15 05:40:40;;;;;;;61.75;27.85;;;;;;;8.03;100.00;102828.84;5263349;28;20032;-66
2021/12/15 05:43:11;;;;;;;59.25;27.35;;;;;;;7.97;100.00;102827.25;5262996;28;20628;-66
2021/12/15 05:45:43;;;;;;;59.28;26.58;;;;;;;8.04;100.00;102827.94;5259631;28;20028;-66
2021/12/15 05:48:15;;;;;;;61.35;27.45;;;;;;;8.01;100.00;102834.19;5255672;28;20035;-66
2021/12/15 05:50:49;;;;;;;60.97;27.08;;;;;;;7.98;100.00;102830.81;5266648;28;20474;-66
2021/12/15 05:53:22;;;;;;;57.45;26.95;;;;;;;8.02;100.00;102827.13;5257513;28;20505;-66
2021/12/15 05:55:53;;;;;;;60.70;27.20;;;;;;;8.00;100.00;102829.81;5260895;28;20024;-66
2021/12/15 05:58:25;;;;;;;62.53;27.70;;;;;;;7.99;100.00;102827.22;5253186;28;20128;-66
2021/12/15 06:00:56;;;;;;;59.92;27.88;;;;;;;7.98;100.00;102826.34;5260458;28;20127;-66
2021/12/15 06:03:27;;;;;;;60.72;27.75;;;;;;;8.01;100.00;102828.88;5246885;28;20041;-66
2021/12/15 06:05:59;;;;;;;64.07;27.90;;;;;;;8.00;100.00;102836.94;5257039;28;20027;-66
2021/12/15 06:08:31;;;;;;;57.90;27.05;;;;;;;8.02;100.00;102822.66;5251279;28;20494;-66
2021/12/15 06:11:03;;;;;;;59.13;28.33;;;;;;;8.01;100.00;102833.34;5247020;28;20032;-66
2021/12/15 06:13:34;;;;;;;69.10;29.58;;;;;;;8.04;100.00;102830.59;5255994;28;20060;-66
2021/12/15 06:16:06;;;;;;;63.08;28.90;;;;;;;8.00;100.00;102832.47;5257157;28;20160;-66
2021/12/15 06:18:38;;;;;;;64.75;27.27;;;;;;;8.02;100.00;102833.28;5260649;28;20027;-66
2021/12/15 06:21:10;;;;;;;64.70;28.73;;;;;;;8.07;100.00;102837.59;5256813;28;21372;-66
2021/12/15 06:23:41;;;;;;;67.95;29.52;;;;;;;8.07;100.00;102835.78;5257938;28;20028;-65
2021/12/15 06:26:13;;;;;;;60.47;27.90;;;;;;;8.07;100.00;102842.91;5259511;28;20540;-65
2021/12/15 06:28:46;;;;;;;62.78;27.98;;;;;;;8.04;100.00;102843.88;5256606;28;20502;-66
2021/12/15 06:31:17;;;;;;;65.45;28.30;;;;;;;8.02;100.00;102846.59;5257548;28;20024;-66
2021/12/15 06:33:49;;;;;;;68.57;28.77;;;;;;;8.07;100.00;102846.41;5260710;28;20029;-66
2021/12/15 06:36:21;;;;;;;66.45;28.13;;;;;;;8.09;100.00;102849.03;5257687;28;20766;-66
2021/12/15 06:38:54;;;;;;;66.65;29.95;;;;;;;8.05;100.00;102841.19;5252842;28;20147;-66
2021/12/15 06:41:25;;;;;;;69.18;30.23;;;;;;;8.05;100.00;102856.25;5261215;28;20100;-66
2021/12/15 06:43:58;;;;;;;67.95;29.10;;;;;;;8.07;100.00;102849.06;5257909;28;20038;-66
2021/12/15 06:47:08;;;;;;;63.53;28.30;;;;;;;8.12;100.00;102856.91;5259757;28;20147;-66
2021/12/15 07:00:44;;;;;;;68.38;30.65;;;;;;;8.11;100.00;102852.50;5255602;28;20045;-66
2021/12/15 07:03:17;;;;;;;72.97;29.25;;;;;;;8.09;100.00;102862.31;5254780;28;20036;-66
2021/12/15 07:05:50;;;;;;;77.20;31.77;;;;;;;8.08;100.00;102866.78;5259651;28;20025;-66
2021/12/15 07:08:23;;;;;;;69.70;30.13;;;;;;;8.09;100.00;102863.19;5257739;28;20717;-66
2021/12/15 07:10:57;;;;;;;76.97;31.10;;;;;;;8.05;100.00;102867.78;5261338;28;20047;-66
2021/12/15 07:13:30;;;;;;;72.10;29.95;;;;;;;8.07;100.00;102880.13;5257288;28;20059;-66
2021/12/15 07:16:06;;;;;;;72.10;29.75;;;;;;;8.09;100.00;102879.13;5259441;28;20440;-66
2021/12/15 07:18:46;;;;;;;70.38;29.13;;;;;;;8.09;100.00;102879.13;5255233;28;20486;-66
2021/12/15 07:21:23;;;;;;;65.72;29.90;;;;;;;8.11;100.00;102881.75;5264090;28;20850;-66
2021/12/15 07:23:54;;;;;;;75.55;30.92;;;;;;;8.13;100.00;102871.94;5257592;28;20622;-66
2021/12/15 07:26:26;;;;;;;72.88;31.00;;;;;;;8.14;100.00;102871.03;5255646;28;20028;-65
2021/12/15 07:28:57;;;;;;;79.65;32.05;;;;;;;8.16;100.00;102885.13;5253104;28;20734;-65
2021/12/15 07:31:28;;;;;;;72.25;29.85;;;;;;;8.09;100.00;102878.28;5258044;28;20455;-65
2021/12/15 07:34:00;;;;;;;76.03;31.63;;;;;;;8.15;100.00;102881.63;5259297;28;20035;-65
2021/12/15 07:36:31;;;;;;;70.13;29.25;;;;;;;8.11;100.00;102887.97;5263095;28;20036;-66
2021/12/15 07:39:03;;;;;;;78.03;31.02;;;;;;;8.14;100.00;102885.19;5259606;28;20032;-66
2021/12/15 07:41:41;;;;;;;76.88;32.33;;;;;;;8.12;100.00;102883.50;5265404;28;20033;-66
2021/12/15 07:44:13;;;;;;;71.75;30.63;;;;;;;8.11;100.00;102887.06;5265125;28;20062;-66
2021/12/15 07:46:46;;;;;;;70.78;30.00;;;;;;;8.20;100.00;102892.94;5265265;28;20545;-66
2021/12/15 07:49:19;;;;;;;75.40;31.60;;;;;;;8.21;100.00;102891.19;5263965;28;20056;-66
2021/12/15 07:52:04;;;;;;;76.68;32.60;;;;;;;8.13;100.00;102894.09;5268790;28;20031;-65
2021/12/15 07:54:36;;;;;;;83.68;31.42;;;;;;;8.16;100.00;102888.66;5264326;28;20151;-65
2021/12/15 07:57:16;;;;;;;73.13;30.45;;;;;;;8.22;100.00;102895.56;5257204;28;20036;-65
2021/12/15 07:59:49;;;;;;;82.25;32.15;;;;;;;8.19;100.00;102896.53;5263413;28;20020;-65
2021/12/15 08:02:21;;;;;;;73.70;30.80;;;;;;;8.19;100.00;102896.53;5273900;28;20111;-65
2021/12/15 08:04:52;;;;;;;82.95;32.78;;;;;;;8.16;100.00;102901.09;5265554;28;20033;-65
2021/12/15 08:07:23;;;;;;;84.75;33.05;;;;;;;8.16;100.00;102901.09;5264125;28;20109;-66
2021/12/15 08:09:55;;;;;;;77.00;32.25;;;;;;;8.21;100.00;102897.38;5272543;28;20116;-66
2021/12/15 08:12:28;;;;;;;87.32;35.58;;;;;;;8.16;100.00;102898.44;5272384;28;20546;-66
2021/12/15 08:14:59;;;;;;;81.15;33.53;;;;;;;8.18;100.00;102904.56;5273626;28;20109;-65
2021/12/15 08:17:30;;;;;;;82.25;32.60;;;;;;;8.17;100.00;102901.03;5269843;28;20472;-65
2021/12/15 08:20:06;;;;;;;85.97;34.47;;;;;;;8.20;100.00;102905.38;5274620;28;20032;-65
2021/12/15 08:22:38;;;;;;;79.57;33.67;;;;;;;8.24;100.00;102902.56;5261673;28;20623;-66
2021/12/15 08:25:12;;;;;;;87.07;34.45;;;;;;;8.20;100.00;102908.91;5271577;28;20444;-65
2021/12/15 08:27:44;;;;;;;86.80;34.95;;;;;;;8.20;100.00;102910.69;5269884;28;20091;-66
2021/12/15 08:30:20;;;;;;;79.28;33.15;;;;;;;8.25;100.00;102906.97;5272821;28;20037;-65
2021/12/15 08:32:55;;;;;;;86.30;33.42;;;;;;;8.25;100.00;102911.44;5270609;28;20131;-65
2021/12/15 08:35:35;;;;;;;86.75;35.72;;;;;;;8.25;100.00;102903.44;5274611;28;20036;-66
2021/12/15 08:38:08;;;;;;;79.68;34.13;;;;;;;8.27;100.00;102911.38;5268039;28;20036;-66
2021/12/15 08:40:41;;;;;;;80.47;33.42;;;;;;;8.25;100.00;102909.63;5269496;28;20036;-66
2021/12/15 08:43:14;;;;;;;86.53;33.88;;;;;;;8.32;100.00;102912.06;5269709;28;20035;-66
2021/12/15 08:45:53;;;;;;;80.32;33.08;;;;;;;8.33;100.00;102912.03;5271351;28;20107;-66
2021/12/15 08:48:25;;;;;;;79.22;33.25;;;;;;;8.38;100.00;102906.53;5267406;28;20032;-66
2021/12/15 08:50:56;;;;;;;82.60;34.17;;;;;;;8.35;100.00;102915.50;5263081;28;20518;-65
2021/12/15 08:53:28;;;;;;;79.68;32.60;;;;;;;8.35;100.00;102914.66;5272786;28;20111;-66
2021/12/15 08:55:59;;;;;;;76.93;33.03;;;;;;;8.42;100.00;102919.75;5271268;28;20033;-65
2021/12/15 08:58:30;;;;;;;78.35;32.65;;;;;;;8.40;100.00;102913.56;5265597;28;20040;-66
2021/12/15 09:01:04;;;;;;;71.70;32.03;;;;;;;8.42;100.00;102922.41;5268440;28;20020;-66
2021/12/15 09:03:38;;;;;;;77.68;32.70;;;;;;;8.45;100.00;102924.06;5274490;28;20511;-66
2021/12/15 09:06:11;;;;;;;70.82;32.17;;;;;;;8.48;100.00;102926.63;5273505;28;20085;-66
2021/12/15 09:08:44;;;;;;;79.43;33.47;;;;;;;8.44;100.00;102925.88;5274152;28;20127;-65
2021/12/15 09:11:20;;;;;;;78.53;34.65;;;;;;;8.43;100.00;102925.91;5265013;28;20166;-65
2021/12/15 09:13:55;;;;;;;78.57;33.25;;;;;;;8.50;100.00;102923.94;5267777;28;20037;-66
2021/12/15 09:16:27;;;;;;;75.70;33.35;;;;;;;8.49;100.00;102936.34;5265570;28;20578;-66
2021/12/15 09:19:00;;;;;;;67.25;31.10;;;;;;;8.54;100.00;102933.53;5265429;28;20055;-66
2021/12/15 09:21:33;;;;;;;70.38;32.53;;;;;;;8.48;100.00;102931.97;5269514;28;20029;-65
2021/12/15 09:24:06;;;;;;;75.32;33.38;;;;;;;8.50;100.00;102929.25;5270565;28;20538;-65
2021/12/15 09:26:38;;;;;;;70.22;31.70;;;;;;;8.52;100.00;102935.38;5260832;28;20028;-66
2021/12/15 09:29:09;;;;;;;70.95;32.28;;;;;;;8.52;100.00;102944.22;5263741;28;20039;-66
2021/12/15 09:31:41;;;;;;;73.35;33.25;;;;;;;8.55;100.00;102951.22;5261057;28;20039;-66
2021/12/15 09:34:17;;;;;;;73.28;32.90;;;;;;;8.58;100.00;102949.34;5261259;28;20025;-66
2021/12/15 09:36:51;;;;;;;67.28;31.30;;;;;;;8.62;100.00;102950.97;5251941;28;20032;-66
2021/12/15 09:39:25;;;;;;;70.30;33.00;;;;;;;8.66;100.00;102958.84;5262696;28;20071;-66
2021/12/15 09:41:56;;;;;;;75.17;33.90;;;;;;;8.71;100.00;102954.25;5259209;28;20541;-66
2021/12/15 09:44:28;;;;;;;75.65;33.45;;;;;;;8.73;100.00;102957.72;5259983;28;20291;-66
2021/12/15 09:47:18;;;;;;;68.75;33.47;;;;;;;8.76;100.00;102953.19;5258388;28;21656;-65
2021/12/15 10:06:49;;;;;;;72.63;33.10;;;;;;;8.98;100.00;102958.59;5258715;28;20128;-66
2021/12/15 10:17:51;;;;;;;68.75;33.25;;;;;;;9.17;100.00;102957.94;5252693;28;20044;-66
2021/12/15 10:20:25;;;;;;;66.50;32.75;;;;;;;9.13;100.00;102958.97;5261804;28;20105;-66
2021/12/15 10:22:58;;;;;;;;;;;;;;;9.28;100.00;102955.75;5259242;28;20059;-66
2021/12/15 10:25:45;;;;;;;63.50;31.48;;;;;;;9.27;100.00;102966.47;5259799;28;20039;-66
2021/12/15 10:28:23;;;;;;;67.70;33.53;;;;;;;9.28;100.00;102957.53;5263977;28;20040;-66
2021/12/15 10:31:03;;;;;;;70.07;35.15;;;;;;;9.32;100.00;102957.38;5255898;28;20078;-66
2021/12/15 10:33:41;;;;;;;60.53;31.85;;;;;;;9.33;100.00;102964.41;5261783;28;20497;-66
2021/12/15 10:36:19;;;;;;;63.35;32.42;;;;;;;9.36;100.00;102959.00;5259118;28;20044;-66
2021/12/15 10:38:54;;;;;;;64.25;32.40;;;;;;;9.40;100.00;102965.06;5270778;28;20031;-66
2021/12/15 10:41:36;;;;;;;64.78;33.85;;;;;;;9.44;100.00;102960.50;5260704;28;20029;-66
2021/12/15 10:44:17;;;;;;;62.70;32.65;;;;;;;9.46;100.00;102950.66;5270186;28;20064;-66
2021/12/15 10:46:53;;;;;;;62.45;33.17;;;;;;;9.50;100.00;102961.13;5264511;28;20031;-65
2021/12/15 10:49:36;;;;;;;62.63;33.03;;;;;;;9.52;100.00;102961.94;5267851;28;20082;-65
2021/12/15 10:52:10;;;;;;;63.83;33.85;;;;;;;9.51;100.00;102964.66;5268550;28;20047;-66
2021/12/15 10:54:46;;;;;;;60.00;33.03;;;;;;;9.51;100.00;102959.31;5273840;28;20059;-65
2021/12/15 10:57:34;;;;;;;59.17;32.22;;;;;;;9.60;100.00;102964.31;5271574;28;20210;-66
2021/12/15 11:00:11;;;;;;;60.22;32.05;;;;;;;9.55;100.00;102964.50;5272739;28;20032;-66
2021/12/15 11:02:42;;;;;;;63.10;32.72;;;;;;;9.58;100.00;102966.16;5267369;28;20032;-66
2021/12/15 11:05:20;;;;;;;58.50;33.38;;;;;;;9.61;100.00;102968.72;5271461;28;20545;-66
2021/12/15 11:07:55;;;;;;;60.03;32.63;;;;;;;9.68;100.00;102966.69;5272199;28;20045;-65
2021/12/15 11:10:34;;;;;;;61.58;33.63;;;;;;;9.66;100.00;102958.72;5269523;28;20062;-66
2021/12/15 11:13:14;;;;;;;59.67;33.33;;;;;;;9.66;100.00;102966.72;5271410;28;20331;-66
2021/12/15 11:15:51;;;;;;;59.58;31.67;;;;;;;9.69;100.00;102960.44;5269234;28;20031;-66
2021/12/15 11:18:27;;;;;;;59.08;34.78;;;;;;;9.65;100.00;102962.34;5266585;28;20075;-66
2021/12/15 11:21:02;;;;;;;55.00;31.80;;;;;;;9.75;100.00;102958.38;5265019;28;20108;-66
2021/12/15 11:23:34;;;;;;;56.03;33.05;;;;;;;9.70;100.00;102960.34;5272832;28;20028;-66
2021/12/15 11:26:10;;;;;;;56.42;31.63;;;;;;;9.78;100.00;102958.28;5267455;28;20082;-66
2021/12/15 11:28:45;;;;;;;55.63;31.13;;;;;;;9.79;100.00;102959.13;5264157;28;20028;-66
2021/12/15 11:31:27;;;;;;;60.33;33.33;;;;;;;9.85;100.00;102955.34;5268237;28;20033;-66
2021/12/15 11:34:05;;;;;;;53.30;32.10;;;;;;;9.83;100.00;102955.41;5270038;28;20040;-65
2021/12/15 11:36:44;;;;;;;57.53;32.53;;;;;;;9.80;100.00;102950.22;5272109;28;20591;-66
2021/12/15 11:39:24;;;;;;;54.55;31.70;;;;;;;9.83;100.00;102952.75;5269661;28;20030;-66
2021/12/15 11:41:56;;;;;;;51.30;31.17;;;;;;;9.85;100.00;102950.88;5266323;28;20039;-66
2021/12/15 11:44:27;;;;;;;54.67;30.42;;;;;;;9.88;100.00;102949.91;5271967;28;20016;-65
2021/12/15 11:47:03;;;;;;;54.15;31.73;;;;;;;9.93;100.00;102950.56;5268048;28;20500;-65
2021/12/15 11:49:39;;;;;;;53.85;30.63;;;;;;;9.91;100.00;102953.31;5263358;28;20450;-66
2021/12/15 11:52:14;;;;;;;55.53;32.35;;;;;;;9.94;100.00;102952.34;5270017;28;20056;-66
2021/12/15 11:54:49;;;;;;;54.78;31.27;;;;;;;9.92;100.00;102954.19;5270551;28;20079;-66
2021/12/15 11:57:22;;;;;;;49.75;29.65;;;;;;;10.00;100.00;102954.75;5269018;28;20118;-66
2021/12/15 11:59:58;;;;;;;53.10;30.83;;;;;;;9.92;100.00;102944.38;5271183;28;20028;-66
2021/12/15 12:02:37;;;;;;;53.45;31.10;;;;;;;9.95;100.00;102943.38;5266245;28;20133;-65
2021/12/15 12:05:18;;;;;;;53.13;29.13;;;;;;;9.95;100.00;102944.28;5257840;28;20036;-66
2021/12/15 12:07:55;;;;;;;51.10;30.08;;;;;;;9.97;100.00;102946.84;5258166;28;20082;-66
2021/12/15 12:10:45;;;;;;;48.63;29.40;;;;;;;9.99;100.00;102945.88;5261535;28;20056;-66
2021/12/15 12:13:25;;;;;;;46.25;29.60;;;;;;;10.02;100.00;102947.56;5267317;28;20035;-65
2021/12/15 12:16:02;;;;;;;47.42;28.77;;;;;;;10.00;100.00;102938.75;5264976;28;20029;-65
2021/12/15 12:18:34;;;;;;;48.17;30.65;;;;;;;10.06;100.00;102934.97;5264081;28;20055;-66
2021/12/15 12:21:09;;;;;;;51.13;30.63;;;;;;;10.05;100.00;102941.22;5262967;28;20839;-66
2021/12/15 12:23:45;;;;;;;;;;;;;;;10.20;100.00;102935.25;5268241;28;20025;-65
2021/12/15 12:26:19;;;;;;;45.78;28.25;;;;;;;10.05;100.00;102933.22;5268393;28;19928;-66
2021/12/15 12:28:50;;;;;;;;;;;;;;;10.22;100.00;102941.41;5262707;28;20106;-66
2021/12/15 12:31:23;;;;;;;48.40;29.02;;;;;;;10.02;100.00;102935.06;5271222;28;19920;-66
2021/12/15 12:33:55;;;;;;;44.70;28.92;;;;;;;10.04;100.00;102932.34;5270174;28;20063;-66
2021/12/15 12:36:33;;;;;;;45.95;27.70;;;;;;;10.14;100.00;102930.16;5261826;28;20540;-66
2021/12/15 12:39:09;;;;;;;46.58;27.20;;;;;;;10.21;100.00;102924.53;5265745;28;20033;-64
2021/12/15 12:41:46;;;;;;;50.28;28.52;;;;;;;10.14;100.00;102925.72;5263618;28;20047;-65
2021/12/15 12:44:22;;;;;;;42.90;27.08;;;;;;;10.18;100.00;102923.78;5261544;28;20060;-65
2021/12/15 12:47:02;;;;;;;44.08;27.83;;;;;;;10.17;100.00;102930.06;5265097;28;20020;-65
2021/12/15 13:01:08;;;;;;;40.63;25.55;;;;;;;10.18;100.00;102916.66;5270733;28;20041;-65
2021/12/15 13:03:44;;;;;;;37.70;25.25;;;;;;;10.16;100.00;102915.88;5271319;28;20039;-65
2021/12/15 13:06:19;;;;;;;36.85;24.25;;;;;;;10.15;100.00;102914.09;5272659;28;20036;-65